createdAt,value
2019-03-29T10:19:08.791Z,41.8
2019-03-29T10:44:56.515Z,37.2
2019-03-29T10:55:52.687Z,39.0
2019-03-29T11:06:13.572Z,37.3
2019-03-29T11:16:58.802Z,38.7
2019-03-29T11:27:25.467Z,36.9
2019-03-29T11:38:24.413Z,37.9
2019-03-29T11:48:42.335Z,37.5
2019-03-29T11:59:35.194Z,36.3
2019-03-29T12:11:25.831Z,34.5
2019-03-29T12:21:47.077Z,33.0
2019-03-29T12:45:50.531Z,33.8
2019-03-29T13:00:37.894Z,35.7
2019-03-29T13:11:01.862Z,39.2
2019-03-29T13:21:49.287Z,42.8
2019-03-29T13:32:09.348Z,44.6
2019-03-29T13:42:23.116Z,45.9
2019-03-29T13:52:45.736Z,46.9
2019-03-29T14:03:09.769Z,47.0
2019-03-29T14:14:12.637Z,46.8
2019-03-29T14:25:02.051Z,47.9
2019-03-29T14:35:50.094Z,48.4
2019-03-29T14:47:18.656Z,48.5
2019-03-29T15:38:20.539Z,44.7
2019-03-29T15:53:44.917Z,45.4
2019-03-29T16:19:32.015Z,45.0
2019-03-29T16:31:31.112Z,46.0
2019-03-29T17:18:39.929Z,48.3
2019-03-29T17:45:00.739Z,49.5
2019-03-29T18:03:05.526Z,49.7
2019-03-29T18:20:47.731Z,50.0
2019-03-29T18:38:39.749Z,50.5
2019-03-29T18:51:32.763Z,51.3
2019-03-29T19:02:28.045Z,51.9
2019-03-29T19:13:23.801Z,52.0
2019-03-29T19:23:38.065Z,52.7
2019-03-29T19:33:52.239Z,53.0
2019-03-29T19:44:47.273Z,52.9
2019-03-29T19:55:41.864Z,52.9
2019-03-29T20:05:54.377Z,53.4
2019-03-29T20:16:49.293Z,53.8
2019-03-29T20:27:03.034Z,53.7
2019-03-29T20:37:16.520Z,53.9
2019-03-29T20:48:02.818Z,54.1
2019-03-29T20:59:21.011Z,54.3
2019-03-29T21:09:37.597Z,54.3
2019-03-29T21:21:01.775Z,54.2
2019-03-29T21:31:56.480Z,54.2
2019-03-29T21:42:13.945Z,54.5
2019-03-29T21:53:04.196Z,54.4
2019-03-29T22:03:24.176Z,54.4
2019-03-29T22:13:38.971Z,54.6
2019-03-29T22:23:58.380Z,55.8
2019-03-29T22:34:45.787Z,55.7
2019-03-29T22:45:12.098Z,55.6
2019-03-29T22:56:01.736Z,55.7
2019-03-29T23:07:01.946Z,56.0
2019-03-29T23:18:06.048Z,55.7
2019-03-29T23:29:08.006Z,55.6
2019-03-29T23:39:21.632Z,55.6
2019-03-29T23:50:24.477Z,55.8
